Terminal Aerodrome Forecast
Issued by NWS

Home | Current Version | Previous Version | Text Only | Print | Product List | Glossary On
Versions: 1 2 3 4 5 6 7 8 9 10 11 12
000
FTUS44 KJAN 011100
TAFHKS
TAF
KHKS 011120Z 0112/0212 04003KT P6SM -RA OVC080
     FM011600 04006KT P6SM VCSH SCT030 OVC050
     FM020000 05003KT P6SM BKN100
     FM020800 00000KT P6SM OVC050=

USA.gov is the U.S. government's official web portal to all federal, state and local government web resources and services.